createdAt,value
2023-08-17T00:00:51.451Z,19.33
2023-08-17T00:03:54.778Z,19.43
2023-08-17T00:06:58.360Z,19.49
2023-08-17T00:10:01.663Z,19.51
2023-08-17T00:13:06.021Z,19.50
2023-08-17T00:16:09.321Z,19.54
2023-08-17T00:19:12.571Z,19.33
2023-08-17T00:22:15.868Z,18.59
2023-08-17T00:25:19.216Z,17.84
2023-08-17T00:28:22.558Z,17.29
2023-08-17T00:31:26.430Z,16.91
2023-08-17T00:34:29.931Z,16.59
2023-08-17T00:37:33.119Z,16.30
2023-08-17T00:40:37.104Z,16.16
2023-08-17T00:43:40.301Z,16.03
2023-08-17T00:46:43.665Z,16.01
2023-08-17T00:49:47.294Z,15.98
2023-08-17T00:52:50.865Z,15.95
2023-08-17T00:55:55.287Z,15.90
2023-08-17T00:58:58.711Z,15.85
2023-08-17T01:02:02.050Z,15.81
2023-08-17T01:05:07.775Z,15.75
2023-08-17T01:08:10.974Z,15.78
2023-08-17T01:11:30.922Z,15.85
2023-08-17T01:14:52.767Z,15.97
2023-08-17T01:18:06.442Z,16.07
2023-08-17T01:21:14.520Z,16.11
2023-08-17T01:24:17.785Z,16.10
2023-08-17T01:27:21.570Z,16.07
2023-08-17T01:30:25.223Z,16.13
2023-08-17T01:33:42.455Z,16.21
2023-08-17T01:36:50.703Z,16.23
2023-08-17T01:39:58.669Z,16.25
2023-08-17T01:43:03.558Z,16.19
2023-08-17T01:46:06.776Z,16.17
2023-08-17T01:49:09.979Z,16.19
2023-08-17T01:52:14.519Z,16.18
2023-08-17T01:55:17.828Z,16.09
2023-08-17T01:58:21.052Z,16.01
2023-08-17T02:01:25.590Z,15.95
2023-08-17T02:04:28.797Z,15.90
2023-08-17T02:07:32.039Z,15.85
2023-08-17T02:10:35.262Z,15.82
2023-08-17T02:13:39.033Z,15.79
2023-08-17T02:16:42.283Z,15.79
2023-08-17T02:19:45.515Z,15.77
2023-08-17T02:22:48.830Z,15.78
2023-08-17T02:25:53.301Z,15.82
2023-08-17T02:28:58.332Z,15.89
2023-08-17T02:32:01.561Z,15.94
2023-08-17T02:35:05.046Z,15.99
2023-08-17T02:38:08.390Z,16.03
2023-08-17T02:41:11.668Z,16.07
2023-08-17T02:44:14.862Z,16.16
2023-08-17T02:47:18.216Z,16.37
2023-08-17T02:50:21.380Z,16.53
2023-08-17T02:53:24.618Z,16.66
2023-08-17T02:56:29.119Z,16.74
2023-08-17T02:59:32.892Z,16.79
2023-08-17T03:02:36.224Z,16.82
2023-08-17T03:05:39.498Z,16.75
2023-08-17T03:08:42.718Z,16.74
2023-08-17T03:11:48.104Z,16.62
2023-08-17T03:14:51.480Z,16.49
2023-08-17T03:17:54.876Z,16.38
2023-08-17T03:20:58.132Z,16.31
2023-08-17T03:24:01.927Z,16.24
2023-08-17T03:27:05.914Z,16.24
2023-08-17T03:30:09.430Z,16.36
2023-08-17T03:33:13.130Z,16.45
2023-08-17T03:36:16.748Z,16.47
2023-08-17T03:39:20.053Z,16.49
2023-08-17T03:42:23.366Z,16.47
2023-08-17T03:45:26.627Z,16.45
2023-08-17T03:48:30.025Z,16.41
2023-08-17T03:51:33.293Z,16.46
2023-08-17T03:54:37.652Z,16.49
2023-08-17T03:57:40.907Z,16.43
2023-08-17T04:00:44.831Z,16.45
2023-08-17T04:03:48.048Z,16.53
2023-08-17T04:06:51.361Z,16.70
2023-08-17T04:09:54.546Z,16.88
2023-08-17T04:13:00.806Z,16.94
2023-08-17T04:16:04.084Z,16.96
2023-08-17T04:19:07.434Z,17.03
2023-08-17T04:22:11.708Z,17.23
2023-08-17T04:25:15.684Z,17.35
2023-08-17T04:28:18.890Z,17.40
2023-08-17T04:31:22.775Z,17.49
2023-08-17T04:34:34.115Z,17.59
2023-08-17T04:37:37.338Z,17.71
2023-08-17T04:40:40.726Z,17.80
2023-08-17T04:43:45.175Z,17.83
2023-08-17T04:46:48.965Z,17.86
2023-08-17T04:49:52.304Z,17.93
2023-08-17T04:52:55.537Z,18.05
2023-08-17T04:55:58.770Z,18.26
2023-08-17T04:59:02.153Z,18.37
2023-08-17T05:02:05.637Z,18.39
2023-08-17T05:05:12.276Z,18.36
2023-08-17T05:08:16.986Z,18.18
2023-08-17T05:11:20.544Z,18.10
2023-08-17T05:14:24.180Z,18.12
2023-08-17T05:17:27.682Z,18.16
2023-08-17T05:20:32.389Z,18.28
2023-08-17T05:23:35.953Z,18.60
2023-08-17T05:26:39.486Z,18.88
2023-08-17T05:29:42.853Z,19.04
2023-08-17T05:32:46.099Z,18.90
2023-08-17T05:35:55.891Z,18.77
2023-08-17T05:38:59.203Z,18.81
2023-08-17T05:42:03.988Z,18.98
2023-08-17T05:45:07.778Z,18.96
2023-08-17T05:48:11.025Z,18.79
2023-08-17T05:51:14.284Z,18.72
2023-08-17T05:54:17.568Z,18.66
2023-08-17T05:57:20.821Z,18.79
2023-08-17T06:00:24.142Z,18.81
2023-08-17T06:03:27.459Z,18.73
2023-08-17T06:06:31.100Z,18.64
2023-08-17T06:09:34.320Z,18.45
2023-08-17T06:12:37.547Z,18.34
2023-08-17T06:15:40.791Z,18.42
2023-08-17T06:18:44.141Z,18.49
2023-08-17T06:21:47.364Z,18.49
2023-08-17T06:24:50.593Z,18.37
2023-08-17T06:27:54.040Z,18.22
2023-08-17T06:30:57.941Z,18.07
2023-08-17T06:34:01.247Z,17.96
2023-08-17T06:37:05.513Z,17.85
2023-08-17T06:40:10.954Z,17.70
2023-08-17T06:43:15.835Z,17.57
2023-08-17T06:46:20.587Z,17.43
2023-08-17T06:49:23.971Z,17.40
2023-08-17T06:52:27.198Z,17.37
2023-08-17T06:55:30.769Z,17.36
2023-08-17T06:58:33.954Z,17.38
2023-08-17T07:01:37.311Z,17.38
2023-08-17T07:04:40.606Z,17.43
2023-08-17T07:07:44.780Z,17.63
2023-08-17T07:10:48.031Z,17.84
2023-08-17T07:13:51.253Z,17.98
2023-08-17T07:16:54.496Z,18.07
2023-08-17T07:20:14.491Z,18.14
2023-08-17T07:23:19.356Z,18.07
2023-08-17T07:26:22.808Z,17.97
2023-08-17T07:29:26.045Z,17.85
2023-08-17T07:32:29.349Z,17.63
2023-08-17T07:35:32.570Z,17.50
2023-08-17T07:38:35.819Z,17.44
2023-08-17T07:41:39.069Z,17.44
2023-08-17T07:44:42.500Z,17.43
2023-08-17T07:47:45.856Z,17.42
2023-08-17T07:50:55.366Z,17.36
2023-08-17T07:53:58.541Z,17.20
2023-08-17T07:57:01.987Z,17.09
2023-08-17T08:00:05.789Z,17.04
2023-08-17T08:03:11.435Z,17.00
2023-08-17T08:06:14.927Z,16.96
2023-08-17T08:09:18.220Z,16.93
2023-08-17T08:12:21.436Z,16.85
2023-08-17T08:15:24.825Z,16.82
2023-08-17T08:18:28.202Z,16.82
2023-08-17T08:21:31.405Z,16.81
2023-08-17T08:24:38.627Z,16.81
2023-08-17T08:27:43.239Z,16.79
2023-08-17T08:30:46.689Z,16.73
2023-08-17T08:33:50.255Z,16.80
2023-08-17T08:36:53.497Z,16.89
2023-08-17T08:39:57.441Z,16.92
2023-08-17T08:43:01.155Z,16.86
2023-08-17T08:46:05.862Z,16.79
2023-08-17T08:49:13.184Z,16.73
2023-08-17T08:52:24.563Z,16.73
2023-08-17T08:55:32.084Z,16.68
2023-08-17T08:58:36.791Z,16.64
2023-08-17T09:01:40.287Z,16.74
2023-08-17T09:04:47.644Z,16.69
2023-08-17T09:07:52.389Z,16.61
2023-08-17T09:10:55.277Z,16.65
2023-08-17T09:13:58.608Z,16.58
2023-08-17T09:17:01.900Z,16.61
2023-08-17T09:20:05.515Z,16.77
2023-08-17T09:23:14.673Z,16.94
2023-08-17T09:26:19.645Z,17.00
2023-08-17T09:29:24.754Z,16.95
2023-08-17T09:32:33.242Z,16.85
2023-08-17T09:35:36.444Z,16.72
2023-08-17T09:38:42.567Z,16.58
2023-08-17T09:41:46.254Z,16.54
2023-08-17T09:44:49.598Z,16.48
2023-08-17T09:47:52.883Z,16.48
2023-08-17T09:51:01.184Z,16.49
2023-08-17T09:54:06.560Z,16.45
2023-08-17T09:57:11.347Z,16.46
2023-08-17T10:00:15.095Z,16.46
2023-08-17T10:03:19.781Z,16.42
2023-08-17T10:06:27.017Z,16.40
2023-08-17T10:09:50.008Z,16.39
2023-08-17T10:13:12.541Z,16.32
2023-08-17T10:16:37.903Z,16.23
2023-08-17T10:19:55.430Z,16.17
2023-08-17T10:23:09.902Z,16.12
2023-08-17T10:26:13.718Z,16.04
2023-08-17T10:29:17.918Z,15.99
2023-08-17T10:32:25.712Z,15.93
2023-08-17T10:35:31.266Z,15.89
2023-08-17T10:38:34.701Z,15.87
2023-08-17T10:41:49.524Z,15.87
2023-08-17T10:44:52.722Z,15.86
2023-08-17T10:48:10.924Z,15.86
2023-08-17T10:51:15.181Z,15.77
2023-08-17T10:54:18.490Z,15.74
2023-08-17T10:57:27.779Z,15.74
2023-08-17T11:00:42.088Z,15.72
2023-08-17T11:03:45.718Z,15.66
2023-08-17T11:07:05.623Z,15.63
2023-08-17T11:10:20.866Z,15.62
2023-08-17T11:13:25.486Z,15.61
2023-08-17T11:16:29.089Z,15.56
2023-08-17T11:19:32.359Z,15.51
2023-08-17T11:22:35.540Z,15.47
2023-08-17T11:25:39.887Z,15.42
2023-08-17T11:28:43.941Z,15.41
2023-08-17T11:31:51.063Z,15.39
2023-08-17T11:34:59.523Z,15.36
2023-08-17T11:38:08.144Z,15.35
2023-08-17T11:44:24.791Z,15.29
2023-08-17T11:47:32.524Z,15.23
2023-08-17T11:50:39.881Z,15.19
2023-08-17T11:53:49.566Z,15.16
2023-08-17T11:56:53.043Z,15.13
2023-08-17T11:59:57.628Z,15.12
2023-08-17T12:03:00.959Z,15.10
2023-08-17T12:06:04.326Z,15.08
2023-08-17T12:09:08.071Z,15.07
2023-08-17T12:12:12.748Z,15.04
2023-08-17T12:15:17.616Z,14.99
2023-08-17T12:18:23.877Z,14.95
2023-08-17T12:21:30.537Z,14.91
2023-08-17T12:24:33.894Z,14.85
2023-08-17T12:27:37.426Z,14.82
2023-08-17T12:30:40.694Z,14.81
2023-08-17T12:33:47.665Z,14.77
2023-08-17T12:36:51.745Z,14.71
2023-08-17T12:39:54.980Z,14.69
2023-08-17T12:42:58.209Z,14.61
2023-08-17T12:46:01.532Z,14.56
2023-08-17T12:49:04.896Z,14.51
2023-08-17T12:52:08.140Z,14.49
2023-08-17T12:55:11.721Z,14.44
2023-08-17T12:58:14.837Z,14.39
2023-08-17T13:01:18.149Z,14.36
2023-08-17T13:04:21.435Z,14.38
2023-08-17T13:07:24.735Z,14.40
2023-08-17T13:10:28.018Z,14.43
2023-08-17T13:13:31.215Z,14.44
2023-08-17T13:16:34.453Z,14.43
2023-08-17T13:19:37.788Z,14.45
2023-08-17T13:22:41.156Z,14.46
2023-08-17T13:25:44.605Z,14.45
2023-08-17T13:28:47.761Z,14.45
2023-08-17T13:31:51.019Z,14.45
2023-08-17T13:34:54.329Z,14.44
2023-08-17T13:37:59.332Z,14.44
2023-08-17T13:41:02.534Z,14.42
2023-08-17T13:44:06.120Z,14.40
2023-08-17T13:47:09.375Z,14.38
2023-08-17T13:50:12.790Z,14.38
2023-08-17T13:53:15.987Z,14.36
2023-08-17T13:56:20.384Z,14.35
2023-08-17T13:59:24.271Z,14.35
2023-08-17T14:02:29.859Z,14.37
2023-08-17T14:05:34.597Z,14.35
2023-08-17T14:08:37.989Z,14.35
2023-08-17T14:11:41.355Z,14.32
2023-08-17T14:14:44.671Z,14.31
2023-08-17T14:17:48.143Z,14.30
2023-08-17T14:20:51.483Z,14.26
2023-08-17T14:23:54.693Z,14.24
2023-08-17T14:26:59.856Z,14.20
2023-08-17T14:30:04.087Z,14.18
2023-08-17T14:33:07.385Z,14.19
2023-08-17T14:36:10.675Z,14.18
2023-08-17T14:39:13.960Z,14.17
2023-08-17T14:42:17.186Z,14.15
2023-08-17T14:45:20.502Z,14.17
2023-08-17T14:48:23.759Z,14.18
2023-08-17T14:54:34.592Z,14.20
2023-08-17T14:57:37.928Z,14.20
2023-08-17T15:00:42.440Z,14.21
2023-08-17T15:03:45.765Z,14.22
2023-08-17T15:06:49.108Z,14.24
2023-08-17T15:09:52.455Z,14.22
2023-08-17T15:12:55.653Z,14.21
2023-08-17T15:15:59.060Z,14.19
2023-08-17T15:19:02.677Z,14.17
2023-08-17T15:22:06.089Z,14.19
2023-08-17T15:25:09.727Z,14.16
2023-08-17T15:28:13.465Z,14.13
2023-08-17T15:31:18.192Z,14.10
2023-08-17T15:34:21.153Z,14.13
2023-08-17T15:37:24.579Z,14.06
2023-08-17T15:40:28.031Z,13.98
2023-08-17T15:43:31.495Z,13.97
2023-08-17T15:46:35.655Z,13.96
2023-08-17T15:49:38.877Z,13.95
2023-08-17T15:52:42.138Z,13.95
2023-08-17T15:55:45.389Z,13.96
2023-08-17T15:58:48.731Z,13.97
2023-08-17T16:01:52.068Z,13.99
2023-08-17T16:04:55.539Z,13.98
2023-08-17T16:07:58.896Z,13.97
2023-08-17T16:11:02.112Z,13.94
2023-08-17T16:14:07.151Z,13.93
2023-08-17T16:17:10.430Z,13.87
2023-08-17T16:20:14.150Z,13.82
2023-08-17T16:23:22.360Z,13.81
2023-08-17T16:26:25.876Z,13.80
2023-08-17T16:29:29.048Z,13.82
2023-08-17T16:32:33.149Z,13.80
2023-08-17T16:35:37.811Z,13.78
2023-08-17T16:38:41.408Z,13.80
2023-08-17T16:44:52.661Z,13.75
2023-08-17T16:47:56.134Z,13.75
2023-08-17T16:50:59.578Z,13.74
2023-08-17T16:54:02.860Z,13.71
2023-08-17T16:57:06.135Z,13.67
2023-08-17T17:00:10.577Z,13.60
2023-08-17T17:03:13.729Z,13.55
2023-08-17T17:06:16.954Z,13.53
2023-08-17T17:09:20.984Z,13.52
2023-08-17T17:12:24.191Z,13.50
2023-08-17T17:15:27.657Z,13.53
2023-08-17T17:18:30.933Z,13.57
2023-08-17T17:21:34.883Z,13.61
2023-08-17T17:24:38.390Z,13.64
2023-08-17T17:27:41.673Z,13.63
2023-08-17T17:30:45.979Z,13.60
2023-08-17T17:33:49.242Z,13.55
2023-08-17T17:36:52.553Z,13.50
2023-08-17T17:39:55.814Z,13.45
2023-08-17T17:42:59.326Z,13.45
2023-08-17T17:46:02.674Z,13.43
2023-08-17T17:49:05.986Z,13.39
2023-08-17T17:52:09.153Z,13.36
2023-08-17T17:55:12.508Z,13.36
2023-08-17T17:58:16.108Z,13.36
2023-08-17T18:01:19.404Z,13.37
2023-08-17T18:04:22.623Z,13.43
2023-08-17T18:07:26.190Z,13.50
2023-08-17T18:10:29.831Z,13.53
2023-08-17T18:13:33.058Z,13.53
2023-08-17T18:16:36.352Z,13.52
2023-08-17T18:19:39.624Z,13.48
2023-08-17T18:22:43.423Z,13.47
2023-08-17T18:25:48.744Z,13.49
2023-08-17T18:28:52.115Z,13.50
2023-08-17T18:31:55.928Z,13.49
2023-08-17T18:34:59.186Z,13.53
2023-08-17T18:38:02.373Z,13.57
2023-08-17T18:41:10.169Z,13.65
2023-08-17T18:44:13.439Z,13.65
2023-08-17T18:47:16.693Z,13.68
2023-08-17T18:50:19.897Z,13.68
2023-08-17T18:53:23.076Z,13.68
2023-08-17T18:56:26.345Z,13.71
2023-08-17T18:59:29.559Z,13.68
2023-08-17T19:02:33.160Z,13.66
2023-08-17T19:05:36.606Z,13.65
2023-08-17T19:08:39.810Z,13.64
2023-08-17T19:11:43.022Z,13.62
2023-08-17T19:14:47.482Z,13.60
2023-08-17T19:17:50.734Z,13.61
2023-08-17T19:20:53.911Z,13.65
2023-08-17T19:23:57.155Z,13.66
2023-08-17T19:27:00.398Z,13.69
2023-08-17T19:30:04.136Z,13.68
2023-08-17T19:33:07.434Z,13.70
2023-08-17T19:36:10.662Z,13.72
2023-08-17T19:39:13.882Z,13.70
2023-08-17T19:42:17.111Z,13.68
2023-08-17T19:45:20.460Z,13.71
2023-08-17T19:48:23.741Z,13.74
2023-08-17T19:51:27.037Z,13.78
2023-08-17T19:54:30.357Z,13.83
2023-08-17T19:57:33.616Z,13.84
2023-08-17T20:00:36.850Z,13.86
2023-08-17T20:03:40.721Z,13.85
2023-08-17T20:06:44.868Z,13.82
2023-08-17T20:09:48.140Z,13.77
2023-08-17T20:12:51.384Z,13.75
2023-08-17T20:15:56.271Z,13.72
2023-08-17T20:18:59.449Z,13.70
2023-08-17T20:22:02.768Z,13.68
2023-08-17T20:25:06.239Z,13.68
2023-08-17T20:28:09.439Z,13.68
2023-08-17T20:31:12.697Z,13.69
2023-08-17T20:34:15.980Z,13.69
2023-08-17T20:37:19.165Z,13.69
2023-08-17T20:40:22.359Z,13.67
2023-08-17T20:43:25.626Z,13.68
2023-08-17T20:46:31.766Z,13.65
2023-08-17T20:49:35.022Z,13.61
2023-08-17T20:52:39.221Z,13.59
2023-08-17T20:55:42.974Z,13.56
2023-08-17T20:58:48.352Z,13.52
2023-08-17T21:01:52.114Z,13.41
2023-08-17T21:04:55.732Z,13.32
2023-08-17T21:08:00.552Z,13.25
2023-08-17T21:11:04.704Z,13.27
2023-08-17T21:14:08.400Z,13.29
2023-08-17T21:17:11.720Z,13.26
2023-08-17T21:20:16.634Z,13.25
2023-08-17T21:23:19.852Z,13.25
2023-08-17T21:26:23.296Z,13.26
2023-08-17T21:29:26.519Z,13.27
2023-08-17T21:32:29.735Z,13.30
2023-08-17T21:35:32.936Z,13.35
2023-08-17T21:38:36.124Z,13.38
2023-08-17T21:41:39.495Z,13.43
2023-08-17T21:44:42.751Z,13.47
2023-08-17T21:47:45.994Z,13.47
2023-08-17T21:50:49.275Z,13.46
2023-08-17T21:53:52.640Z,13.49
2023-08-17T21:56:55.833Z,13.47
2023-08-17T21:59:59.036Z,13.43
2023-08-17T22:03:06.395Z,13.39
2023-08-17T22:06:09.698Z,13.34
2023-08-17T22:09:12.900Z,13.29
2023-08-17T22:12:16.100Z,13.23
2023-08-17T22:15:19.353Z,13.19
2023-08-17T22:18:22.546Z,13.18
2023-08-17T22:21:25.780Z,13.21
2023-08-17T22:24:37.666Z,13.21
2023-08-17T22:27:49.366Z,13.26
2023-08-17T22:30:52.619Z,13.31
2023-08-17T22:33:55.789Z,13.35
2023-08-17T22:36:59.044Z,13.39
2023-08-17T22:40:02.281Z,13.45
2023-08-17T22:43:05.759Z,13.48
2023-08-17T22:46:09.037Z,13.53
2023-08-17T22:49:12.310Z,13.59
2023-08-17T22:52:15.560Z,13.64
2023-08-17T22:55:18.730Z,13.66
2023-08-17T22:58:22.015Z,13.73
2023-08-17T23:01:25.266Z,13.79
2023-08-17T23:04:29.161Z,13.85
2023-08-17T23:07:32.703Z,13.98
2023-08-17T23:10:35.884Z,14.11
2023-08-17T23:13:39.411Z,14.44
2023-08-17T23:16:42.607Z,14.84
2023-08-17T23:19:45.816Z,15.15
2023-08-17T23:22:49.034Z,15.32
2023-08-17T23:25:52.957Z,15.36
2023-08-17T23:28:56.189Z,15.40
2023-08-17T23:32:03.963Z,15.56
2023-08-17T23:35:15.941Z,16.04
2023-08-17T23:38:19.160Z,17.02
2023-08-17T23:41:22.324Z,17.22
2023-08-17T23:44:25.580Z,16.93
2023-08-17T23:47:28.974Z,16.54
2023-08-17T23:50:32.344Z,16.22
2023-08-17T23:53:35.509Z,15.97
2023-08-17T23:56:38.784Z,15.93
2023-08-17T23:59:42.090Z,16.09
